sensor_id;sensor_type;location;lat;lon;timestamp;P1;durP1;ratioP1;P2;durP2;ratioP2
25153;SDS011;47555;51.038;6.280;2023-01-09T00:00:37;0.30;;;0.30;;
25153;SDS011;47555;51.038;6.280;2023-01-09T00:03:04;0.50;;;0.50;;
25153;SDS011;47555;51.038;6.280;2023-01-09T00:05:29;0.40;;;0.40;;
25153;SDS011;47555;51.038;6.280;2023-01-09T00:07:55;1.02;;;0.40;;
25153;SDS011;47555;51.038;6.280;2023-01-09T00:10:20;0.35;;;0.35;;
25153;SDS011;47555;51.038;6.280;2023-01-09T00:12:46;0.35;;;0.32;;
25153;SDS011;47555;51.038;6.280;2023-01-09T00:15:11;0.77;;;0.40;;
25153;SDS011;47555;51.038;6.280;2023-01-09T00:17:37;0.50;;;0.50;;
25153;SDS011;47555;51.038;6.280;2023-01-09T00:20:03;0.43;;;0.43;;
25153;SDS011;47555;51.038;6.280;2023-01-09T00:22:30;0.52;;;0.40;;
25153;SDS011;47555;51.038;6.280;2023-01-09T00:24:56;0.40;;;0.40;;
25153;SDS011;47555;51.038;6.280;2023-01-09T00:27:21;0.40;;;0.40;;
25153;SDS011;47555;51.038;6.280;2023-01-09T00:29:47;0.40;;;0.40;;
25153;SDS011;47555;51.038;6.280;2023-01-09T00:32:13;1.27;;;0.50;;
25153;SDS011;47555;51.038;6.280;2023-01-09T00:34:39;0.98;;;0.60;;
25153;SDS011;47555;51.038;6.280;2023-01-09T00:37:06;0.55;;;0.50;;
25153;SDS011;47555;51.038;6.280;2023-01-09T00:39:36;0.50;;;0.50;;
25153;SDS011;47555;51.038;6.280;2023-01-09T00:42:03;0.40;;;0.40;;
25153;SDS011;47555;51.038;6.280;2023-01-09T00:44:44;1.50;;;0.60;;
25153;SDS011;47555;51.038;6.280;2023-01-09T00:47:17;0.60;;;0.60;;
25153;SDS011;47555;51.038;6.280;2023-01-09T00:49:46;0.68;;;0.68;;
25153;SDS011;47555;51.038;6.280;2023-01-09T00:52:13;0.50;;;0.50;;
25153;SDS011;47555;51.038;6.280;2023-01-09T00:54:39;0.50;;;0.50;;
25153;SDS011;47555;51.038;6.280;2023-01-09T00:57:06;0.63;;;0.50;;
25153;SDS011;47555;51.038;6.280;2023-01-09T00:59:34;0.50;;;0.50;;
25153;SDS011;47555;51.038;6.280;2023-01-09T01:02:00;0.50;;;0.50;;
25153;SDS011;47555;51.038;6.280;2023-01-09T01:04:25;0.50;;;0.50;;
25153;SDS011;47555;51.038;6.280;2023-01-09T01:07:09;1.30;;;0.63;;
25153;SDS011;47555;51.038;6.280;2023-01-09T01:09:53;0.50;;;0.50;;
25153;SDS011;47555;51.038;6.280;2023-01-09T01:12:19;1.20;;;0.57;;
25153;SDS011;47555;51.038;6.280;2023-01-09T01:14:44;0.85;;;0.68;;
25153;SDS011;47555;51.038;6.280;2023-01-09T01:17:10;0.70;;;0.70;;
25153;SDS011;47555;51.038;6.280;2023-01-09T01:19:35;2.13;;;0.70;;
25153;SDS011;47555;51.038;6.280;2023-01-09T01:22:01;2.25;;;0.70;;
25153;SDS011;47555;51.038;6.280;2023-01-09T01:24:26;1.70;;;0.73;;
25153;SDS011;47555;51.038;6.280;2023-01-09T01:26:52;0.80;;;0.80;;
25153;SDS011;47555;51.038;6.280;2023-01-09T01:29:18;1.15;;;0.60;;
25153;SDS011;47555;51.038;6.280;2023-01-09T01:31:43;1.50;;;0.80;;
25153;SDS011;47555;51.038;6.280;2023-01-09T01:34:09;0.98;;;0.80;;
25153;SDS011;47555;51.038;6.280;2023-01-09T01:36:34;3.75;;;0.75;;
25153;SDS011;47555;51.038;6.280;2023-01-09T01:39:00;1.67;;;0.80;;
25153;SDS011;47555;51.038;6.280;2023-01-09T01:41:25;0.88;;;0.82;;
25153;SDS011;47555;51.038;6.280;2023-01-09T01:43:58;1.60;;;0.80;;
25153;SDS011;47555;51.038;6.280;2023-01-09T01:46:29;1.77;;;0.88;;
25153;SDS011;47555;51.038;6.280;2023-01-09T01:48:58;1.20;;;0.80;;
25153;SDS011;47555;51.038;6.280;2023-01-09T01:51:28;1.42;;;1.00;;
25153;SDS011;47555;51.038;6.280;2023-01-09T01:53:57;2.20;;;1.15;;
25153;SDS011;47555;51.038;6.280;2023-01-09T01:56:27;3.25;;;0.95;;
25153;SDS011;47555;51.038;6.280;2023-01-09T01:59:16;1.75;;;0.90;;
25153;SDS011;47555;51.038;6.280;2023-01-09T02:01:48;1.00;;;1.00;;
25153;SDS011;47555;51.038;6.280;2023-01-09T02:04:16;4.25;;;1.00;;
25153;SDS011;47555;51.038;6.280;2023-01-09T02:06:42;0.98;;;0.88;;
25153;SDS011;47555;51.038;6.280;2023-01-09T02:09:10;0.90;;;0.90;;
25153;SDS011;47555;51.038;6.280;2023-01-09T02:11:43;0.98;;;0.90;;
25153;SDS011;47555;51.038;6.280;2023-01-09T02:14:09;3.38;;;1.08;;
25153;SDS011;47555;51.038;6.280;2023-01-09T02:19:36;1.40;;;1.00;;
25153;SDS011;47555;51.038;6.280;2023-01-09T02:22:23;1.25;;;1.13;;
25153;SDS011;47555;51.038;6.280;2023-01-09T02:25:20;1.52;;;1.10;;
25153;SDS011;47555;51.038;6.280;2023-01-09T02:28:48;1.45;;;1.30;;
25153;SDS011;47555;51.038;6.280;2023-01-09T02:31:39;2.40;;;1.00;;
25153;SDS011;47555;51.038;6.280;2023-01-09T02:34:35;1.20;;;1.10;;
25153;SDS011;47555;51.038;6.280;2023-01-09T02:37:33;2.07;;;1.20;;
25153;SDS011;47555;51.038;6.280;2023-01-09T02:42:46;2.42;;;1.20;;
25153;SDS011;47555;51.038;6.280;2023-01-09T02:45:12;2.30;;;1.75;;
25153;SDS011;47555;51.038;6.280;2023-01-09T02:47:42;1.77;;;1.00;;
25153;SDS011;47555;51.038;6.280;2023-01-09T02:50:10;1.38;;;1.20;;
25153;SDS011;47555;51.038;6.280;2023-01-09T02:58:37;4.10;;;1.40;;
25153;SDS011;47555;51.038;6.280;2023-01-09T03:01:25;2.50;;;1.50;;
25153;SDS011;47555;51.038;6.280;2023-01-09T03:07:18;9.10;;;1.75;;
25153;SDS011;47555;51.038;6.280;2023-01-09T03:09:49;4.43;;;1.30;;
25153;SDS011;47555;51.038;6.280;2023-01-09T03:12:21;3.33;;;1.20;;
25153;SDS011;47555;51.038;6.280;2023-01-09T03:14:49;2.13;;;1.20;;
25153;SDS011;47555;51.038;6.280;2023-01-09T03:17:25;1.55;;;1.30;;
25153;SDS011;47555;51.038;6.280;2023-01-09T03:19:53;2.88;;;1.20;;
25153;SDS011;47555;51.038;6.280;2023-01-09T03:22:20;1.77;;;1.23;;
25153;SDS011;47555;51.038;6.280;2023-01-09T03:24:46;3.78;;;1.45;;
25153;SDS011;47555;51.038;6.280;2023-01-09T03:27:11;1.80;;;1.15;;
25153;SDS011;47555;51.038;6.280;2023-01-09T03:29:38;2.38;;;0.98;;
25153;SDS011;47555;51.038;6.280;2023-01-09T03:32:03;3.70;;;1.40;;
25153;SDS011;47555;51.038;6.280;2023-01-09T03:34:29;4.05;;;1.50;;
25153;SDS011;47555;51.038;6.280;2023-01-09T03:36:54;3.97;;;1.30;;
25153;SDS011;47555;51.038;6.280;2023-01-09T03:39:20;2.35;;;1.10;;
25153;SDS011;47555;51.038;6.280;2023-01-09T03:41:45;6.97;;;1.45;;
25153;SDS011;47555;51.038;6.280;2023-01-09T03:44:11;1.95;;;1.15;;
25153;SDS011;47555;51.038;6.280;2023-01-09T03:46:36;2.70;;;1.10;;
25153;SDS011;47555;51.038;6.280;2023-01-09T03:49:02;3.33;;;1.20;;
25153;SDS011;47555;51.038;6.280;2023-01-09T03:51:27;2.63;;;1.00;;
25153;SDS011;47555;51.038;6.280;2023-01-09T03:53:53;2.33;;;1.00;;
25153;SDS011;47555;51.038;6.280;2023-01-09T03:56:18;4.32;;;1.10;;
25153;SDS011;47555;51.038;6.280;2023-01-09T03:58:44;3.45;;;1.02;;
25153;SDS011;47555;51.038;6.280;2023-01-09T04:01:09;4.68;;;1.15;;
25153;SDS011;47555;51.038;6.280;2023-01-09T04:03:38;2.33;;;1.02;;
25153;SDS011;47555;51.038;6.280;2023-01-09T04:06:04;2.90;;;1.08;;
25153;SDS011;47555;51.038;6.280;2023-01-09T04:08:30;5.72;;;1.05;;
25153;SDS011;47555;51.038;6.280;2023-01-09T04:10:55;2.13;;;1.20;;
25153;SDS011;47555;51.038;6.280;2023-01-09T04:13:21;1.20;;;1.10;;
25153;SDS011;47555;51.038;6.280;2023-01-09T04:15:47;1.15;;;1.05;;
25153;SDS011;47555;51.038;6.280;2023-01-09T04:18:13;7.50;;;1.20;;
25153;SDS011;47555;51.038;6.280;2023-01-09T04:20:39;1.70;;;1.00;;
25153;SDS011;47555;51.038;6.280;2023-01-09T04:23:05;3.88;;;1.15;;
25153;SDS011;47555;51.038;6.280;2023-01-09T04:25:31;2.65;;;1.00;;
25153;SDS011;47555;51.038;6.280;2023-01-09T04:27:56;1.80;;;1.10;;
25153;SDS011;47555;51.038;6.280;2023-01-09T04:30:25;4.30;;;1.25;;
25153;SDS011;47555;51.038;6.280;2023-01-09T04:32:50;6.70;;;1.02;;
25153;SDS011;47555;51.038;6.280;2023-01-09T04:35:16;3.30;;;1.02;;
25153;SDS011;47555;51.038;6.280;2023-01-09T04:37:42;3.15;;;1.10;;
25153;SDS011;47555;51.038;6.280;2023-01-09T04:40:08;5.47;;;1.10;;
25153;SDS011;47555;51.038;6.280;2023-01-09T04:42:35;6.97;;;1.65;;
25153;SDS011;47555;51.038;6.280;2023-01-09T04:45:00;2.60;;;1.15;;
25153;SDS011;47555;51.038;6.280;2023-01-09T04:47:26;3.45;;;1.08;;
25153;SDS011;47555;51.038;6.280;2023-01-09T04:49:51;2.28;;;1.30;;
25153;SDS011;47555;51.038;6.280;2023-01-09T04:52:17;3.15;;;0.95;;
25153;SDS011;47555;51.038;6.280;2023-01-09T04:54:43;3.20;;;1.05;;
25153;SDS011;47555;51.038;6.280;2023-01-09T04:57:09;3.70;;;1.00;;
25153;SDS011;47555;51.038;6.280;2023-01-09T04:59:34;1.90;;;0.90;;
25153;SDS011;47555;51.038;6.280;2023-01-09T05:02:00;4.30;;;1.15;;
25153;SDS011;47555;51.038;6.280;2023-01-09T05:04:25;2.97;;;1.02;;
25153;SDS011;47555;51.038;6.280;2023-01-09T05:06:51;4.25;;;1.10;;
25153;SDS011;47555;51.038;6.280;2023-01-09T05:09:16;2.47;;;1.15;;
25153;SDS011;47555;51.038;6.280;2023-01-09T05:11:42;1.60;;;0.90;;
25153;SDS011;47555;51.038;6.280;2023-01-09T05:14:07;2.90;;;1.00;;
25153;SDS011;47555;51.038;6.280;2023-01-09T05:16:33;2.78;;;1.02;;
25153;SDS011;47555;51.038;6.280;2023-01-09T05:18:59;4.03;;;1.20;;
25153;SDS011;47555;51.038;6.280;2023-01-09T05:21:24;2.25;;;1.33;;
25153;SDS011;47555;51.038;6.280;2023-01-09T05:23:50;2.10;;;1.00;;
25153;SDS011;47555;51.038;6.280;2023-01-09T05:26:17;3.60;;;1.05;;
25153;SDS011;47555;51.038;6.280;2023-01-09T05:28:47;1.20;;;0.80;;
25153;SDS011;47555;51.038;6.280;2023-01-09T05:31:17;3.30;;;1.02;;
25153;SDS011;47555;51.038;6.280;2023-01-09T05:33:43;1.95;;;1.08;;
25153;SDS011;47555;51.038;6.280;2023-01-09T05:36:09;7.93;;;1.20;;
25153;SDS011;47555;51.038;6.280;2023-01-09T05:38:35;2.28;;;1.20;;
25153;SDS011;47555;51.038;6.280;2023-01-09T05:41:03;3.00;;;1.10;;
25153;SDS011;47555;51.038;6.280;2023-01-09T05:43:29;5.47;;;1.58;;
25153;SDS011;47555;51.038;6.280;2023-01-09T05:45:55;2.95;;;1.10;;
25153;SDS011;47555;51.038;6.280;2023-01-09T05:48:21;5.72;;;1.10;;
25153;SDS011;47555;51.038;6.280;2023-01-09T05:50:46;1.60;;;0.98;;
25153;SDS011;47555;51.038;6.280;2023-01-09T05:53:12;4.60;;;1.17;;
25153;SDS011;47555;51.038;6.280;2023-01-09T05:55:37;3.72;;;1.20;;
25153;SDS011;47555;51.038;6.280;2023-01-09T05:58:03;4.68;;;1.45;;
25153;SDS011;47555;51.038;6.280;2023-01-09T06:00:28;6.07;;;1.52;;
25153;SDS011;47555;51.038;6.280;2023-01-09T06:02:54;3.40;;;1.60;;
25153;SDS011;47555;51.038;6.280;2023-01-09T06:05:19;6.28;;;1.20;;
25153;SDS011;47555;51.038;6.280;2023-01-09T06:07:45;5.30;;;1.45;;
25153;SDS011;47555;51.038;6.280;2023-01-09T06:10:11;6.78;;;1.40;;
25153;SDS011;47555;51.038;6.280;2023-01-09T06:12:38;4.75;;;1.25;;
25153;SDS011;47555;51.038;6.280;2023-01-09T06:15:04;3.70;;;1.33;;
25153;SDS011;47555;51.038;6.280;2023-01-09T06:17:30;2.05;;;1.00;;
25153;SDS011;47555;51.038;6.280;2023-01-09T06:19:55;7.85;;;1.25;;
25153;SDS011;47555;51.038;6.280;2023-01-09T06:22:21;6.53;;;1.35;;
25153;SDS011;47555;51.038;6.280;2023-01-09T06:24:46;4.60;;;1.58;;
25153;SDS011;47555;51.038;6.280;2023-01-09T06:27:12;6.55;;;1.55;;
25153;SDS011;47555;51.038;6.280;2023-01-09T06:29:38;2.95;;;1.20;;
25153;SDS011;47555;51.038;6.280;2023-01-09T06:32:04;4.80;;;1.48;;
25153;SDS011;47555;51.038;6.280;2023-01-09T06:34:30;5.10;;;1.50;;
25153;SDS011;47555;51.038;6.280;2023-01-09T06:36:55;4.80;;;1.38;;
25153;SDS011;47555;51.038;6.280;2023-01-09T06:39:24;6.70;;;1.67;;
25153;SDS011;47555;51.038;6.280;2023-01-09T06:41:49;4.43;;;1.10;;
25153;SDS011;47555;51.038;6.280;2023-01-09T06:44:15;5.18;;;1.58;;
25153;SDS011;47555;51.038;6.280;2023-01-09T06:46:40;2.95;;;1.20;;
25153;SDS011;47555;51.038;6.280;2023-01-09T06:49:07;4.80;;;1.00;;
25153;SDS011;47555;51.038;6.280;2023-01-09T06:51:33;4.93;;;1.10;;
25153;SDS011;47555;51.038;6.280;2023-01-09T06:53:59;6.93;;;1.30;;
25153;SDS011;47555;51.038;6.280;2023-01-09T06:56:24;5.35;;;1.70;;
25153;SDS011;47555;51.038;6.280;2023-01-09T06:58:50;10.40;;;1.33;;
25153;SDS011;47555;51.038;6.280;2023-01-09T07:01:15;5.28;;;1.85;;
25153;SDS011;47555;51.038;6.280;2023-01-09T07:03:41;3.03;;;1.00;;
25153;SDS011;47555;51.038;6.280;2023-01-09T07:06:07;2.03;;;1.15;;
25153;SDS011;47555;51.038;6.280;2023-01-09T07:08:33;4.38;;;1.27;;
25153;SDS011;47555;51.038;6.280;2023-01-09T07:10:58;4.90;;;1.33;;
25153;SDS011;47555;51.038;6.280;2023-01-09T07:13:24;9.93;;;1.73;;
25153;SDS011;47555;51.038;6.280;2023-01-09T07:15:49;4.28;;;1.23;;
25153;SDS011;47555;51.038;6.280;2023-01-09T07:18:17;3.40;;;1.00;;
25153;SDS011;47555;51.038;6.280;2023-01-09T07:20:43;6.22;;;1.45;;
25153;SDS011;47555;51.038;6.280;2023-01-09T07:23:11;5.65;;;1.50;;
25153;SDS011;47555;51.038;6.280;2023-01-09T07:25:37;7.28;;;1.65;;
25153;SDS011;47555;51.038;6.280;2023-01-09T07:28:04;5.80;;;1.60;;
25153;SDS011;47555;51.038;6.280;2023-01-09T07:30:29;5.30;;;1.40;;
25153;SDS011;47555;51.038;6.280;2023-01-09T07:32:55;8.70;;;1.60;;
25153;SDS011;47555;51.038;6.280;2023-01-09T07:35:20;8.77;;;1.50;;
25153;SDS011;47555;51.038;6.280;2023-01-09T07:37:46;4.35;;;1.20;;
25153;SDS011;47555;51.038;6.280;2023-01-09T07:40:11;6.85;;;1.60;;
25153;SDS011;47555;51.038;6.280;2023-01-09T07:42:37;4.85;;;1.63;;
25153;SDS011;47555;51.038;6.280;2023-01-09T07:45:03;7.50;;;1.70;;
25153;SDS011;47555;51.038;6.280;2023-01-09T07:47:29;4.28;;;1.10;;
25153;SDS011;47555;51.038;6.280;2023-01-09T07:49:55;5.90;;;1.40;;
25153;SDS011;47555;51.038;6.280;2023-01-09T07:52:20;3.83;;;1.30;;
25153;SDS011;47555;51.038;6.280;2023-01-09T07:54:46;2.53;;;1.17;;
25153;SDS011;47555;51.038;6.280;2023-01-09T07:57:12;5.15;;;1.88;;
25153;SDS011;47555;51.038;6.280;2023-01-09T07:59:38;6.15;;;1.73;;
25153;SDS011;47555;51.038;6.280;2023-01-09T08:02:03;5.65;;;1.10;;
25153;SDS011;47555;51.038;6.280;2023-01-09T08:04:30;6.80;;;1.48;;
25153;SDS011;47555;51.038;6.280;2023-01-09T08:06:56;7.85;;;1.52;;
25153;SDS011;47555;51.038;6.280;2023-01-09T08:09:22;6.20;;;1.17;;
25153;SDS011;47555;51.038;6.280;2023-01-09T08:11:47;4.05;;;1.23;;
25153;SDS011;47555;51.038;6.280;2023-01-09T08:14:14;4.50;;;1.10;;
25153;SDS011;47555;51.038;6.280;2023-01-09T08:16:40;7.40;;;1.58;;
25153;SDS011;47555;51.038;6.280;2023-01-09T08:19:05;4.13;;;1.60;;
25153;SDS011;47555;51.038;6.280;2023-01-09T08:21:31;4.45;;;1.23;;
25153;SDS011;47555;51.038;6.280;2023-01-09T08:23:56;4.30;;;1.20;;
25153;SDS011;47555;51.038;6.280;2023-01-09T08:26:22;4.95;;;1.13;;
25153;SDS011;47555;51.038;6.280;2023-01-09T08:28:47;4.30;;;1.20;;
25153;SDS011;47555;51.038;6.280;2023-01-09T08:31:13;5.25;;;1.27;;
25153;SDS011;47555;51.038;6.280;2023-01-09T08:33:39;5.68;;;0.98;;
25153;SDS011;47555;51.038;6.280;2023-01-09T08:36:05;1.63;;;0.90;;
25153;SDS011;47555;51.038;6.280;2023-01-09T08:38:30;6.00;;;1.17;;
25153;SDS011;47555;51.038;6.280;2023-01-09T08:40:56;4.28;;;1.10;;
25153;SDS011;47555;51.038;6.280;2023-01-09T08:43:21;5.90;;;1.30;;
25153;SDS011;47555;51.038;6.280;2023-01-09T08:46:10;7.95;;;1.15;;
25153;SDS011;47555;51.038;6.280;2023-01-09T08:49:01;2.42;;;1.00;;
25153;SDS011;47555;51.038;6.280;2023-01-09T08:51:27;4.47;;;1.30;;
25153;SDS011;47555;51.038;6.280;2023-01-09T08:53:52;5.25;;;1.15;;
25153;SDS011;47555;51.038;6.280;2023-01-09T08:56:21;4.60;;;1.38;;
25153;SDS011;47555;51.038;6.280;2023-01-09T08:58:46;3.88;;;1.20;;
25153;SDS011;47555;51.038;6.280;2023-01-09T09:01:11;1.98;;;0.80;;
25153;SDS011;47555;51.038;6.280;2023-01-09T09:03:37;5.90;;;1.20;;
25153;SDS011;47555;51.038;6.280;2023-01-09T09:06:02;6.55;;;1.45;;
25153;SDS011;47555;51.038;6.280;2023-01-09T09:08:30;3.20;;;1.30;;
25153;SDS011;47555;51.038;6.280;2023-01-09T09:10:56;4.68;;;1.08;;
25153;SDS011;47555;51.038;6.280;2023-01-09T09:13:21;4.20;;;1.40;;
25153;SDS011;47555;51.038;6.280;2023-01-09T09:15:47;5.53;;;1.60;;
25153;SDS011;47555;51.038;6.280;2023-01-09T09:18:12;5.82;;;1.75;;
25153;SDS011;47555;51.038;6.280;2023-01-09T09:20:38;3.20;;;1.20;;
25153;SDS011;47555;51.038;6.280;2023-01-09T09:23:04;4.32;;;1.10;;
25153;SDS011;47555;51.038;6.280;2023-01-09T09:25:30;3.35;;;1.27;;
25153;SDS011;47555;51.038;6.280;2023-01-09T09:27:56;4.68;;;1.38;;
25153;SDS011;47555;51.038;6.280;2023-01-09T09:30:22;4.10;;;0.98;;
25153;SDS011;47555;51.038;6.280;2023-01-09T09:32:48;3.85;;;1.10;;
25153;SDS011;47555;51.038;6.280;2023-01-09T09:35:14;2.10;;;1.00;;
25153;SDS011;47555;51.038;6.280;2023-01-09T09:37:41;1.05;;;0.95;;
25153;SDS011;47555;51.038;6.280;2023-01-09T09:40:18;5.38;;;1.35;;
25153;SDS011;47555;51.038;6.280;2023-01-09T09:48:47;6.00;;;1.85;;
25153;SDS011;47555;51.038;6.280;2023-01-09T09:54:13;3.97;;;1.40;;
25153;SDS011;47555;51.038;6.280;2023-01-09T09:59:25;4.45;;;0.95;;
25153;SDS011;47555;51.038;6.280;2023-01-09T10:02:01;5.18;;;1.48;;
25153;SDS011;47555;51.038;6.280;2023-01-09T10:07:08;4.03;;;1.30;;
25153;SDS011;47555;51.038;6.280;2023-01-09T10:09:54;7.38;;;1.52;;
25153;SDS011;47555;51.038;6.280;2023-01-09T10:12:38;3.53;;;1.20;;
25153;SDS011;47555;51.038;6.280;2023-01-09T10:17:45;3.50;;;1.20;;
25153;SDS011;47555;51.038;6.280;2023-01-09T10:20:38;2.58;;;1.20;;
25153;SDS011;47555;51.038;6.280;2023-01-09T10:23:19;4.03;;;1.17;;
25153;SDS011;47555;51.038;6.280;2023-01-09T10:26:11;2.30;;;1.25;;
25153;SDS011;47555;51.038;6.280;2023-01-09T10:36:53;2.03;;;1.25;;
25153;SDS011;47555;51.038;6.280;2023-01-09T10:39:34;5.53;;;1.40;;
25153;SDS011;47555;51.038;6.280;2023-01-09T10:42:07;3.70;;;1.23;;
25153;SDS011;47555;51.038;6.280;2023-01-09T10:44:48;3.60;;;1.33;;
25153;SDS011;47555;51.038;6.280;2023-01-09T10:47:26;4.85;;;1.10;;
25153;SDS011;47555;51.038;6.280;2023-01-09T10:49:55;4.40;;;1.40;;
25153;SDS011;47555;51.038;6.280;2023-01-09T10:52:32;4.25;;;1.05;;
25153;SDS011;47555;51.038;6.280;2023-01-09T10:55:11;2.03;;;1.00;;
25153;SDS011;47555;51.038;6.280;2023-01-09T11:00:13;5.38;;;1.20;;
25153;SDS011;47555;51.038;6.280;2023-01-09T11:02:42;1.50;;;1.23;;
25153;SDS011;47555;51.038;6.280;2023-01-09T11:05:11;3.05;;;1.00;;
25153;SDS011;47555;51.038;6.280;2023-01-09T11:07:45;1.52;;;0.90;;
25153;SDS011;47555;51.038;6.280;2023-01-09T11:10:15;1.55;;;0.90;;
25153;SDS011;47555;51.038;6.280;2023-01-09T11:12:41;1.15;;;0.95;;
25153;SDS011;47555;51.038;6.280;2023-01-09T11:17:52;2.30;;;0.85;;
25153;SDS011;47555;51.038;6.280;2023-01-09T11:22:51;2.00;;;0.80;;
25153;SDS011;47555;51.038;6.280;2023-01-09T11:25:20;1.42;;;0.70;;
25153;SDS011;47555;51.038;6.280;2023-01-09T11:30:31;1.75;;;0.93;;
25153;SDS011;47555;51.038;6.280;2023-01-09T11:33:00;2.20;;;0.77;;
25153;SDS011;47555;51.038;6.280;2023-01-09T11:35:49;6.38;;;0.80;;
25153;SDS011;47555;51.038;6.280;2023-01-09T11:38:23;2.58;;;0.88;;
25153;SDS011;47555;51.038;6.280;2023-01-09T11:40:56;2.47;;;0.80;;
25153;SDS011;47555;51.038;6.280;2023-01-09T11:43:28;2.47;;;0.70;;
25153;SDS011;47555;51.038;6.280;2023-01-09T11:46:06;1.58;;;1.15;;
25153;SDS011;47555;51.038;6.280;2023-01-09T11:51:05;1.08;;;0.98;;
25153;SDS011;47555;51.038;6.280;2023-01-09T11:53:49;1.40;;;0.88;;
25153;SDS011;47555;51.038;6.280;2023-01-09T11:56:36;1.95;;;0.95;;
25153;SDS011;47555;51.038;6.280;2023-01-09T11:59:12;1.10;;;0.80;;
25153;SDS011;47555;51.038;6.280;2023-01-09T12:04:41;2.38;;;1.05;;
25153;SDS011;47555;51.038;6.280;2023-01-09T12:07:28;1.25;;;0.90;;
25153;SDS011;47555;51.038;6.280;2023-01-09T12:21:46;2.70;;;1.33;;
25153;SDS011;47555;51.038;6.280;2023-01-09T12:24:29;3.28;;;1.27;;
25153;SDS011;47555;51.038;6.280;2023-01-09T12:27:30;2.30;;;1.30;;
25153;SDS011;47555;51.038;6.280;2023-01-09T12:30:42;2.45;;;1.60;;
25153;SDS011;47555;51.038;6.280;2023-01-09T12:36:08;2.45;;;1.30;;
25153;SDS011;47555;51.038;6.280;2023-01-09T12:39:10;2.35;;;1.48;;
25153;SDS011;47555;51.038;6.280;2023-01-09T12:47:24;1.85;;;1.20;;
25153;SDS011;47555;51.038;6.280;2023-01-09T12:52:47;2.92;;;1.40;;
25153;SDS011;47555;51.038;6.280;2023-01-09T12:55:24;3.40;;;1.52;;
25153;SDS011;47555;51.038;6.280;2023-01-09T12:57:56;2.95;;;1.67;;
25153;SDS011;47555;51.038;6.280;2023-01-09T13:00:27;5.13;;;1.88;;
25153;SDS011;47555;51.038;6.280;2023-01-09T13:06:00;1.67;;;1.25;;
25153;SDS011;47555;51.038;6.280;2023-01-09T13:11:36;2.60;;;1.70;;
25153;SDS011;47555;51.038;6.280;2023-01-09T13:16:42;1.70;;;1.30;;
25153;SDS011;47555;51.038;6.280;2023-01-09T13:21:53;2.63;;;1.50;;
25153;SDS011;47555;51.038;6.280;2023-01-09T13:24:25;3.65;;;1.30;;
25153;SDS011;47555;51.038;6.280;2023-01-09T13:27:05;2.35;;;1.50;;
25153;SDS011;47555;51.038;6.280;2023-01-09T13:29:44;7.50;;;1.60;;
25153;SDS011;47555;51.038;6.280;2023-01-09T13:32:16;3.00;;;1.80;;
25153;SDS011;47555;51.038;6.280;2023-01-09T13:35:03;5.85;;;1.83;;
25153;SDS011;47555;51.038;6.280;2023-01-09T13:37:33;2.35;;;1.75;;
25153;SDS011;47555;51.038;6.280;2023-01-09T13:40:01;5.68;;;2.20;;
25153;SDS011;47555;51.038;6.280;2023-01-09T13:42:31;3.45;;;1.83;;
25153;SDS011;47555;51.038;6.280;2023-01-09T13:45:08;4.15;;;1.35;;
25153;SDS011;47555;51.038;6.280;2023-01-09T13:50:33;3.40;;;1.77;;
25153;SDS011;47555;51.038;6.280;2023-01-09T13:58:22;4.05;;;1.73;;
25153;SDS011;47555;51.038;6.280;2023-01-09T14:00:59;2.28;;;1.80;;
25153;SDS011;47555;51.038;6.280;2023-01-09T14:08:23;5.03;;;1.33;;
25153;SDS011;47555;51.038;6.280;2023-01-09T14:10:55;1.98;;;1.45;;
25153;SDS011;47555;51.038;6.280;2023-01-09T14:16:06;2.08;;;1.50;;
25153;SDS011;47555;51.038;6.280;2023-01-09T14:18:44;4.13;;;1.67;;
25153;SDS011;47555;51.038;6.280;2023-01-09T14:21:15;4.07;;;1.65;;
25153;SDS011;47555;51.038;6.280;2023-01-09T14:23:57;5.10;;;1.80;;
25153;SDS011;47555;51.038;6.280;2023-01-09T14:26:41;2.78;;;1.85;;
25153;SDS011;47555;51.038;6.280;2023-01-09T14:34:59;5.55;;;1.80;;
25153;SDS011;47555;51.038;6.280;2023-01-09T14:37:34;3.75;;;2.00;;
25153;SDS011;47555;51.038;6.280;2023-01-09T14:40:01;2.50;;;1.95;;
25153;SDS011;47555;51.038;6.280;2023-01-09T14:42:29;2.60;;;1.75;;
25153;SDS011;47555;51.038;6.280;2023-01-09T14:50:06;5.07;;;2.40;;
25153;SDS011;47555;51.038;6.280;2023-01-09T14:55:25;7.18;;;2.35;;
25153;SDS011;47555;51.038;6.280;2023-01-09T14:57:59;4.70;;;2.33;;
25153;SDS011;47555;51.038;6.280;2023-01-09T15:00:45;4.43;;;2.08;;
25153;SDS011;47555;51.038;6.280;2023-01-09T15:03:12;6.75;;;2.88;;
25153;SDS011;47555;51.038;6.280;2023-01-09T15:05:38;3.95;;;2.00;;
25153;SDS011;47555;51.038;6.280;2023-01-09T15:08:03;4.18;;;2.50;;
25153;SDS011;47555;51.038;6.280;2023-01-09T15:10:30;6.63;;;2.80;;
25153;SDS011;47555;51.038;6.280;2023-01-09T15:12:58;3.97;;;1.92;;
25153;SDS011;47555;51.038;6.280;2023-01-09T15:15:26;4.63;;;2.03;;
25153;SDS011;47555;51.038;6.280;2023-01-09T15:17:56;5.38;;;2.45;;
25153;SDS011;47555;51.038;6.280;2023-01-09T15:20:25;5.28;;;2.38;;
25153;SDS011;47555;51.038;6.280;2023-01-09T15:22:54;4.85;;;1.90;;
25153;SDS011;47555;51.038;6.280;2023-01-09T15:25:28;7.43;;;2.53;;
25153;SDS011;47555;51.038;6.280;2023-01-09T15:27:59;7.60;;;3.00;;
25153;SDS011;47555;51.038;6.280;2023-01-09T15:30:27;10.73;;;2.83;;
25153;SDS011;47555;51.038;6.280;2023-01-09T15:32:59;6.22;;;2.42;;
25153;SDS011;47555;51.038;6.280;2023-01-09T15:35:27;7.25;;;2.60;;
25153;SDS011;47555;51.038;6.280;2023-01-09T15:37:53;2.42;;;2.08;;
25153;SDS011;47555;51.038;6.280;2023-01-09T15:40:22;3.45;;;2.00;;
25153;SDS011;47555;51.038;6.280;2023-01-09T15:42:51;6.00;;;2.70;;
25153;SDS011;47555;51.038;6.280;2023-01-09T15:45:26;5.90;;;2.40;;
25153;SDS011;47555;51.038;6.280;2023-01-09T15:50:42;10.73;;;3.08;;
25153;SDS011;47555;51.038;6.280;2023-01-09T15:53:21;5.32;;;2.88;;
25153;SDS011;47555;51.038;6.280;2023-01-09T15:58:48;4.80;;;2.80;;
25153;SDS011;47555;51.038;6.280;2023-01-09T16:01:34;4.40;;;2.45;;
25153;SDS011;47555;51.038;6.280;2023-01-09T16:04:11;8.50;;;2.58;;
25153;SDS011;47555;51.038;6.280;2023-01-09T16:06:44;4.88;;;2.42;;
25153;SDS011;47555;51.038;6.280;2023-01-09T16:09:25;5.97;;;2.50;;
25153;SDS011;47555;51.038;6.280;2023-01-09T16:11:52;3.65;;;2.70;;
25153;SDS011;47555;51.038;6.280;2023-01-09T16:16:49;6.97;;;2.30;;
25153;SDS011;47555;51.038;6.280;2023-01-09T16:21:57;4.18;;;2.20;;
25153;SDS011;47555;51.038;6.280;2023-01-09T16:24:24;6.18;;;2.72;;
25153;SDS011;47555;51.038;6.280;2023-01-09T16:27:09;5.35;;;2.30;;
25153;SDS011;47555;51.038;6.280;2023-01-09T16:29:36;2.45;;;1.88;;
25153;SDS011;47555;51.038;6.280;2023-01-09T16:32:04;4.82;;;2.20;;
25153;SDS011;47555;51.038;6.280;2023-01-09T16:34:32;3.80;;;2.00;;
25153;SDS011;47555;51.038;6.280;2023-01-09T16:36:58;5.00;;;2.13;;
25153;SDS011;47555;51.038;6.280;2023-01-09T16:39:28;6.97;;;1.95;;
25153;SDS011;47555;51.038;6.280;2023-01-09T16:41:56;4.07;;;2.13;;
25153;SDS011;47555;51.038;6.280;2023-01-09T16:44:41;5.05;;;2.20;;
25153;SDS011;47555;51.038;6.280;2023-01-09T16:47:10;4.50;;;2.35;;
25153;SDS011;47555;51.038;6.280;2023-01-09T16:49:39;5.13;;;2.40;;
25153;SDS011;47555;51.038;6.280;2023-01-09T16:52:16;7.38;;;2.50;;
25153;SDS011;47555;51.038;6.280;2023-01-09T16:54:42;4.55;;;2.35;;
25153;SDS011;47555;51.038;6.280;2023-01-09T16:57:11;4.07;;;2.20;;
25153;SDS011;47555;51.038;6.280;2023-01-09T16:59:39;6.10;;;2.88;;
25153;SDS011;47555;51.038;6.280;2023-01-09T17:02:08;4.10;;;2.58;;
25153;SDS011;47555;51.038;6.280;2023-01-09T17:04:43;5.53;;;2.35;;
25153;SDS011;47555;51.038;6.280;2023-01-09T17:07:11;4.13;;;2.45;;
25153;SDS011;47555;51.038;6.280;2023-01-09T17:09:38;5.13;;;2.92;;
25153;SDS011;47555;51.038;6.280;2023-01-09T17:12:03;5.50;;;3.00;;
25153;SDS011;47555;51.038;6.280;2023-01-09T17:14:29;6.10;;;2.75;;